sensor_id;sensor_type;location;lat;lon;timestamp;temperature;humidity
75164;HTU21D;63746;45.402;37.922;2023-07-31T00:00:31;23.83;58.67
75164;HTU21D;63746;45.402;37.922;2023-07-31T00:02:57;23.81;58.67
75164;HTU21D;63746;45.402;37.922;2023-07-31T00:05:23;23.80;58.70
75164;HTU21D;63746;45.402;37.922;2023-07-31T00:07:49;23.76;58.70
75164;HTU21D;63746;45.402;37.922;2023-07-31T00:10:15;23.76;58.72
75164;HTU21D;63746;45.402;37.922;2023-07-31T00:12:43;23.75;58.76
75164;HTU21D;63746;45.402;37.922;2023-07-31T00:15:09;23.73;58.75
75164;HTU21D;63746;45.402;37.922;2023-07-31T00:17:36;23.72;58.78
75164;HTU21D;63746;45.402;37.922;2023-07-31T00:20:02;23.71;58.79
75164;HTU21D;63746;45.402;37.922;2023-07-31T00:22:28;23.70;58.80
75164;HTU21D;63746;45.402;37.922;2023-07-31T00:24:56;23.68;58.83
75164;HTU21D;63746;45.402;37.922;2023-07-31T00:27:22;23.67;58.86
75164;HTU21D;63746;45.402;37.922;2023-07-31T00:29:49;23.65;58.87
75164;HTU21D;63746;45.402;37.922;2023-07-31T00:32:15;23.66;58.90
75164;HTU21D;63746;45.402;37.922;2023-07-31T00:34:41;23.64;58.89
75164;HTU21D;63746;45.402;37.922;2023-07-31T00:37:07;23.61;58.91
75164;HTU21D;63746;45.402;37.922;2023-07-31T00:39:34;23.61;58.94
75164;HTU21D;63746;45.402;37.922;2023-07-31T00:42:01;23.60;58.95
75164;HTU21D;63746;45.402;37.922;2023-07-31T00:44:27;23.60;58.94
75164;HTU21D;63746;45.402;37.922;2023-07-31T00:46:54;23.60;58.95
75164;HTU21D;63746;45.402;37.922;2023-07-31T00:49:21;23.58;58.96
75164;HTU21D;63746;45.402;37.922;2023-07-31T00:51:48;23.54;58.97
75164;HTU21D;63746;45.402;37.922;2023-07-31T00:54:14;23.54;59.00
75164;HTU21D;63746;45.402;37.922;2023-07-31T00:56:40;23.53;59.02
75164;HTU21D;63746;45.402;37.922;2023-07-31T00:59:07;23.51;59.03
75164;HTU21D;63746;45.402;37.922;2023-07-31T01:01:33;23.50;59.03
75164;HTU21D;63746;45.402;37.922;2023-07-31T01:03:59;23.49;59.05
75164;HTU21D;63746;45.402;37.922;2023-07-31T01:06:40;23.47;59.34
75164;HTU21D;63746;45.402;37.922;2023-07-31T01:09:16;23.44;59.16
75164;HTU21D;63746;45.402;37.922;2023-07-31T01:11:53;23.41;59.32
75164;HTU21D;63746;45.402;37.922;2023-07-31T01:14:19;23.39;59.12
75164;HTU21D;63746;45.402;37.922;2023-07-31T01:16:45;23.38;59.14
75164;HTU21D;63746;45.402;37.922;2023-07-31T01:19:11;23.35;59.18
75164;HTU21D;63746;45.402;37.922;2023-07-31T01:26:53;23.29;59.23
75164;HTU21D;63746;45.402;37.922;2023-07-31T01:29:32;23.25;59.30
75164;HTU21D;63746;45.402;37.922;2023-07-31T01:32:02;23.21;59.20
75164;HTU21D;63746;45.402;37.922;2023-07-31T01:34:29;23.17;59.22
75164;HTU21D;63746;45.402;37.922;2023-07-31T01:36:57;23.13;59.22
75164;HTU21D;63746;45.402;37.922;2023-07-31T01:39:24;23.10;59.28
75164;HTU21D;63746;45.402;37.922;2023-07-31T01:41:50;23.07;59.33
75164;HTU21D;63746;45.402;37.922;2023-07-31T01:44:16;23.05;59.32
75164;HTU21D;63746;45.402;37.922;2023-07-31T01:46:42;23.02;59.32
75164;HTU21D;63746;45.402;37.922;2023-07-31T01:49:08;22.97;59.33
75164;HTU21D;63746;45.402;37.922;2023-07-31T01:51:34;22.95;59.35
75164;HTU21D;63746;45.402;37.922;2023-07-31T01:54:01;22.91;59.37
75164;HTU21D;63746;45.402;37.922;2023-07-31T01:56:27;22.87;59.38
75164;HTU21D;63746;45.402;37.922;2023-07-31T01:58:53;22.84;59.41
75164;HTU21D;63746;45.402;37.922;2023-07-31T02:01:19;22.81;59.42
75164;HTU21D;63746;45.402;37.922;2023-07-31T02:03:45;22.78;59.45
75164;HTU21D;63746;45.402;37.922;2023-07-31T02:06:11;22.73;59.41
75164;HTU21D;63746;45.402;37.922;2023-07-31T02:08:37;22.69;59.44
75164;HTU21D;63746;45.402;37.922;2023-07-31T02:11:03;22.66;59.48
75164;HTU21D;63746;45.402;37.922;2023-07-31T02:13:49;22.61;59.99
75164;HTU21D;63746;45.402;37.922;2023-07-31T02:16:15;22.57;59.58
75164;HTU21D;63746;45.402;37.922;2023-07-31T02:18:40;22.54;59.62
75164;HTU21D;63746;45.402;37.922;2023-07-31T02:21:06;22.52;59.67
75164;HTU21D;63746;45.402;37.922;2023-07-31T02:23:32;22.50;59.73
75164;HTU21D;63746;45.402;37.922;2023-07-31T02:25:58;22.49;59.77
75164;HTU21D;63746;45.402;37.922;2023-07-31T02:28:24;22.48;59.75
75164;HTU21D;63746;45.402;37.922;2023-07-31T02:30:50;22.46;59.76
75164;HTU21D;63746;45.402;37.922;2023-07-31T02:33:17;22.43;59.80
75164;HTU21D;63746;45.402;37.922;2023-07-31T02:35:43;22.43;59.86
75164;HTU21D;63746;45.402;37.922;2023-07-31T02:38:09;22.42;59.90
75164;HTU21D;63746;45.402;37.922;2023-07-31T02:40:35;22.42;59.93
75164;HTU21D;63746;45.402;37.922;2023-07-31T02:43:01;22.42;59.94
75164;HTU21D;63746;45.402;37.922;2023-07-31T02:45:27;22.42;59.95
75164;HTU21D;63746;45.402;37.922;2023-07-31T02:47:53;22.42;59.94
75164;HTU21D;63746;45.402;37.922;2023-07-31T02:50:20;22.43;59.97
75164;HTU21D;63746;45.402;37.922;2023-07-31T02:52:46;22.43;60.00
75164;HTU21D;63746;45.402;37.922;2023-07-31T02:55:12;22.44;60.05
75164;HTU21D;63746;45.402;37.922;2023-07-31T02:57:38;22.46;60.06
75164;HTU21D;63746;45.402;37.922;2023-07-31T03:00:04;22.48;60.08
75164;HTU21D;63746;45.402;37.922;2023-07-31T03:02:32;22.49;60.07
75164;HTU21D;63746;45.402;37.922;2023-07-31T03:04:58;22.50;60.05
75164;HTU21D;63746;45.402;37.922;2023-07-31T03:07:24;22.51;60.05
75164;HTU21D;63746;45.402;37.922;2023-07-31T03:09:50;22.52;60.09
75164;HTU21D;63746;45.402;37.922;2023-07-31T03:12:16;22.54;60.13
75164;HTU21D;63746;45.402;37.922;2023-07-31T03:14:41;22.56;60.12
75164;HTU21D;63746;45.402;37.922;2023-07-31T03:17:07;22.58;60.14
75164;HTU21D;63746;45.402;37.922;2023-07-31T03:19:33;22.61;60.12
75164;HTU21D;63746;45.402;37.922;2023-07-31T03:21:59;22.63;60.12
75164;HTU21D;63746;45.402;37.922;2023-07-31T03:24:28;22.63;60.14
75164;HTU21D;63746;45.402;37.922;2023-07-31T03:26:54;22.66;60.16
75164;HTU21D;63746;45.402;37.922;2023-07-31T03:29:22;22.66;60.17
75164;HTU21D;63746;45.402;37.922;2023-07-31T03:31:47;22.70;60.18
75164;HTU21D;63746;45.402;37.922;2023-07-31T03:34:13;22.71;60.21
75164;HTU21D;63746;45.402;37.922;2023-07-31T03:36:39;22.76;60.28
75164;HTU21D;63746;45.402;37.922;2023-07-31T03:39:05;22.79;60.30
75164;HTU21D;63746;45.402;37.922;2023-07-31T03:41:31;22.84;60.25
75164;HTU21D;63746;45.402;37.922;2023-07-31T03:43:57;22.91;60.25
75164;HTU21D;63746;45.402;37.922;2023-07-31T03:46:24;22.94;60.22
75164;HTU21D;63746;45.402;37.922;2023-07-31T03:48:50;22.96;60.18
75164;HTU21D;63746;45.402;37.922;2023-07-31T03:51:17;22.98;60.18
75164;HTU21D;63746;45.402;37.922;2023-07-31T03:53:43;23.01;60.18
75164;HTU21D;63746;45.402;37.922;2023-07-31T03:56:10;23.01;60.18
75164;HTU21D;63746;45.402;37.922;2023-07-31T03:58:36;23.02;60.24
75164;HTU21D;63746;45.402;37.922;2023-07-31T04:01:03;23.07;60.29
75164;HTU21D;63746;45.402;37.922;2023-07-31T04:03:29;23.10;60.28
75164;HTU21D;63746;45.402;37.922;2023-07-31T04:05:55;23.15;60.32
75164;HTU21D;63746;45.402;37.922;2023-07-31T04:08:22;23.22;60.35
75164;HTU21D;63746;45.402;37.922;2023-07-31T04:10:48;23.27;60.28
75164;HTU21D;63746;45.402;37.922;2023-07-31T04:13:14;23.31;60.20
75164;HTU21D;63746;45.402;37.922;2023-07-31T04:15:40;23.36;60.19
75164;HTU21D;63746;45.402;37.922;2023-07-31T04:18:06;23.40;60.17
75164;HTU21D;63746;45.402;37.922;2023-07-31T04:20:32;23.44;60.17
75164;HTU21D;63746;45.402;37.922;2023-07-31T04:22:58;23.50;60.15
75164;HTU21D;63746;45.402;37.922;2023-07-31T04:25:24;23.54;60.14
75164;HTU21D;63746;45.402;37.922;2023-07-31T04:27:50;23.57;60.11
75164;HTU21D;63746;45.402;37.922;2023-07-31T04:30:16;23.60;60.09
75164;HTU21D;63746;45.402;37.922;2023-07-31T04:32:42;23.65;60.06
75164;HTU21D;63746;45.402;37.922;2023-07-31T04:35:08;23.70;60.06
75164;HTU21D;63746;45.402;37.922;2023-07-31T04:37:34;23.74;60.04
75164;HTU21D;63746;45.402;37.922;2023-07-31T04:39:59;23.79;60.03
75164;HTU21D;63746;45.402;37.922;2023-07-31T04:42:25;23.82;60.03
75164;HTU21D;63746;45.402;37.922;2023-07-31T04:44:51;23.86;60.02
75164;HTU21D;63746;45.402;37.922;2023-07-31T04:47:19;23.90;60.02
75164;HTU21D;63746;45.402;37.922;2023-07-31T04:49:45;23.96;59.98
75164;HTU21D;63746;45.402;37.922;2023-07-31T04:52:11;24.00;59.96
75164;HTU21D;63746;45.402;37.922;2023-07-31T04:54:37;24.03;59.94
75164;HTU21D;63746;45.402;37.922;2023-07-31T04:57:03;24.09;59.96
75164;HTU21D;63746;45.402;37.922;2023-07-31T04:59:29;24.14;59.96
75164;HTU21D;63746;45.402;37.922;2023-07-31T05:01:55;24.20;59.98
75164;HTU21D;63746;45.402;37.922;2023-07-31T05:04:21;24.27;59.96
75164;HTU21D;63746;45.402;37.922;2023-07-31T05:06:46;24.34;59.96
75164;HTU21D;63746;45.402;37.922;2023-07-31T05:09:12;24.42;59.93
75164;HTU21D;63746;45.402;37.922;2023-07-31T05:11:38;24.48;59.86
75164;HTU21D;63746;45.402;37.922;2023-07-31T05:14:06;24.57;59.86
75164;HTU21D;63746;45.402;37.922;2023-07-31T05:16:32;24.62;59.88
75164;HTU21D;63746;45.402;37.922;2023-07-31T05:18:57;24.72;59.84
75164;HTU21D;63746;45.402;37.922;2023-07-31T05:21:23;24.79;59.80
75164;HTU21D;63746;45.402;37.922;2023-07-31T05:23:49;24.89;59.77
75164;HTU21D;63746;45.402;37.922;2023-07-31T05:26:15;24.98;59.72
75164;HTU21D;63746;45.402;37.922;2023-07-31T05:28:41;25.07;59.68
75164;HTU21D;63746;45.402;37.922;2023-07-31T05:31:07;25.16;59.64
75164;HTU21D;63746;45.402;37.922;2023-07-31T05:33:33;25.24;59.57
75164;HTU21D;63746;45.402;37.922;2023-07-31T05:35:59;25.33;59.53
75164;HTU21D;63746;45.402;37.922;2023-07-31T05:38:25;25.42;59.45
75164;HTU21D;63746;45.402;37.922;2023-07-31T05:40:51;25.48;59.41
75164;HTU21D;63746;45.402;37.922;2023-07-31T05:43:17;25.60;59.36
75164;HTU21D;63746;45.402;37.922;2023-07-31T05:45:43;25.68;59.31
75164;HTU21D;63746;45.402;37.922;2023-07-31T05:48:09;25.76;59.25
75164;HTU21D;63746;45.402;37.922;2023-07-31T05:50:35;25.86;59.20
75164;HTU21D;63746;45.402;37.922;2023-07-31T05:53:01;25.96;59.19
75164;HTU21D;63746;45.402;37.922;2023-07-31T05:55:27;26.05;59.09
75164;HTU21D;63746;45.402;37.922;2023-07-31T05:57:53;26.15;59.02
75164;HTU21D;63746;45.402;37.922;2023-07-31T06:00:19;26.22;58.94
75164;HTU21D;63746;45.402;37.922;2023-07-31T06:02:47;26.31;58.93
75164;HTU21D;63746;45.402;37.922;2023-07-31T06:05:13;26.40;58.83
75164;HTU21D;63746;45.402;37.922;2023-07-31T06:07:40;26.49;58.80
75164;HTU21D;63746;45.402;37.922;2023-07-31T06:10:06;26.57;58.72
75164;HTU21D;63746;45.402;37.922;2023-07-31T06:12:33;26.66;58.66
75164;HTU21D;63746;45.402;37.922;2023-07-31T06:14:59;26.73;58.58
75164;HTU21D;63746;45.402;37.922;2023-07-31T06:17:25;26.81;58.50
75164;HTU21D;63746;45.402;37.922;2023-07-31T06:19:52;26.87;58.44
75164;HTU21D;63746;45.402;37.922;2023-07-31T06:22:18;26.94;58.38
75164;HTU21D;63746;45.402;37.922;2023-07-31T06:24:44;27.02;58.36
75164;HTU21D;63746;45.402;37.922;2023-07-31T06:27:10;27.10;58.33
75164;HTU21D;63746;45.402;37.922;2023-07-31T06:29:36;27.19;58.25
75164;HTU21D;63746;45.402;37.922;2023-07-31T06:32:03;27.25;58.18
75164;HTU21D;63746;45.402;37.922;2023-07-31T06:34:29;27.34;58.14
75164;HTU21D;63746;45.402;37.922;2023-07-31T06:36:58;27.41;58.06
75164;HTU21D;63746;45.402;37.922;2023-07-31T06:39:24;27.50;58.03
75164;HTU21D;63746;45.402;37.922;2023-07-31T06:41:50;27.57;57.95
75164;HTU21D;63746;45.402;37.922;2023-07-31T06:44:16;27.65;57.90
75164;HTU21D;63746;45.402;37.922;2023-07-31T06:46:42;27.72;57.83
75164;HTU21D;63746;45.402;37.922;2023-07-31T06:49:08;27.78;57.79
75164;HTU21D;63746;45.402;37.922;2023-07-31T06:51:34;27.85;57.73
75164;HTU21D;63746;45.402;37.922;2023-07-31T06:54:01;27.91;57.68
75164;HTU21D;63746;45.402;37.922;2023-07-31T06:56:28;27.99;57.63
75164;HTU21D;63746;45.402;37.922;2023-07-31T06:58:55;28.08;57.56
75164;HTU21D;63746;45.402;37.922;2023-07-31T07:01:21;28.14;57.52
75164;HTU21D;63746;45.402;37.922;2023-07-31T07:03:47;28.23;57.48
75164;HTU21D;63746;45.402;37.922;2023-07-31T07:06:17;28.31;57.45
75164;HTU21D;63746;45.402;37.922;2023-07-31T07:08:43;28.41;57.38
75164;HTU21D;63746;45.402;37.922;2023-07-31T07:11:09;28.49;57.32
75164;HTU21D;63746;45.402;37.922;2023-07-31T07:13:35;28.56;57.25
75164;HTU21D;63746;45.402;37.922;2023-07-31T07:16:01;28.64;57.19
75164;HTU21D;63746;45.402;37.922;2023-07-31T07:18:27;28.72;57.14
75164;HTU21D;63746;45.402;37.922;2023-07-31T07:20:54;28.79;57.08
75164;HTU21D;63746;45.402;37.922;2023-07-31T07:23:20;28.89;57.01
75164;HTU21D;63746;45.402;37.922;2023-07-31T07:25:47;28.95;56.97
75164;HTU21D;63746;45.402;37.922;2023-07-31T07:28:13;29.02;56.87
75164;HTU21D;63746;45.402;37.922;2023-07-31T07:30:39;29.08;56.83
75164;HTU21D;63746;45.402;37.922;2023-07-31T07:33:06;29.15;56.84
75164;HTU21D;63746;45.402;37.922;2023-07-31T07:35:35;29.24;56.77
75164;HTU21D;63746;45.402;37.922;2023-07-31T07:38:02;29.35;56.77
75164;HTU21D;63746;45.402;37.922;2023-07-31T07:40:28;29.46;56.71
75164;HTU21D;63746;45.402;37.922;2023-07-31T07:42:54;29.53;56.60
75164;HTU21D;63746;45.402;37.922;2023-07-31T07:45:20;29.63;56.50
75164;HTU21D;63746;45.402;37.922;2023-07-31T07:47:47;29.68;56.42
75164;HTU21D;63746;45.402;37.922;2023-07-31T07:50:12;29.75;56.34
75164;HTU21D;63746;45.402;37.922;2023-07-31T07:52:38;29.81;56.29
75164;HTU21D;63746;45.402;37.922;2023-07-31T07:55:05;29.86;56.26
75164;HTU21D;63746;45.402;37.922;2023-07-31T07:57:31;29.93;56.23
75164;HTU21D;63746;45.402;37.922;2023-07-31T07:59:57;29.97;56.19
75164;HTU21D;63746;45.402;37.922;2023-07-31T08:02:23;30.06;56.12
75164;HTU21D;63746;45.402;37.922;2023-07-31T08:04:50;30.11;56.10
75164;HTU21D;63746;45.402;37.922;2023-07-31T08:07:16;30.19;56.09
75164;HTU21D;63746;45.402;37.922;2023-07-31T08:09:42;30.28;56.02
75164;HTU21D;63746;45.402;37.922;2023-07-31T08:12:08;30.35;55.90
75164;HTU21D;63746;45.402;37.922;2023-07-31T08:14:34;30.41;55.83
75164;HTU21D;63746;45.402;37.922;2023-07-31T08:17:02;30.46;55.75
75164;HTU21D;63746;45.402;37.922;2023-07-31T08:19:28;30.51;55.71
75164;HTU21D;63746;45.402;37.922;2023-07-31T08:21:54;30.55;55.68
75164;HTU21D;63746;45.402;37.922;2023-07-31T08:24:20;30.62;55.66
75164;HTU21D;63746;45.402;37.922;2023-07-31T08:26:46;30.67;55.57
75164;HTU21D;63746;45.402;37.922;2023-07-31T08:29:12;30.74;55.59
75164;HTU21D;63746;45.402;37.922;2023-07-31T08:31:39;30.81;55.55
75164;HTU21D;63746;45.402;37.922;2023-07-31T08:34:05;30.89;55.53
75164;HTU21D;63746;45.402;37.922;2023-07-31T08:36:31;30.97;55.44
75164;HTU21D;63746;45.402;37.922;2023-07-31T08:38:57;31.07;55.37
75164;HTU21D;63746;45.402;37.922;2023-07-31T08:41:23;31.13;55.29
75164;HTU21D;63746;45.402;37.922;2023-07-31T08:43:52;31.20;55.04
75164;HTU21D;63746;45.402;37.922;2023-07-31T08:46:18;31.22;55.10
75164;HTU21D;63746;45.402;37.922;2023-07-31T08:48:46;31.27;55.10
75164;HTU21D;63746;45.402;37.922;2023-07-31T08:51:14;31.34;55.07
75164;HTU21D;63746;45.402;37.922;2023-07-31T08:53:41;31.43;55.07
75164;HTU21D;63746;45.402;37.922;2023-07-31T08:56:07;31.52;55.00
75164;HTU21D;63746;45.402;37.922;2023-07-31T08:58:35;31.60;54.90
75164;HTU21D;63746;45.402;37.922;2023-07-31T09:01:03;31.67;54.72
75164;HTU21D;63746;45.402;37.922;2023-07-31T09:03:33;31.70;54.64
75164;HTU21D;63746;45.402;37.922;2023-07-31T09:05:59;31.71;54.56
75164;HTU21D;63746;45.402;37.922;2023-07-31T09:08:30;31.71;54.33
75164;HTU21D;63746;45.402;37.922;2023-07-31T09:11:00;31.71;54.41
75164;HTU21D;63746;45.402;37.922;2023-07-31T09:13:28;31.73;54.49
75164;HTU21D;63746;45.402;37.922;2023-07-31T09:15:54;31.79;52.74
75164;HTU21D;63746;45.402;37.922;2023-07-31T09:18:20;31.82;54.54
75164;HTU21D;63746;45.402;37.922;2023-07-31T09:21:01;31.89;54.03
75164;HTU21D;63746;45.402;37.922;2023-07-31T09:23:46;31.98;54.03
75164;HTU21D;63746;45.402;37.922;2023-07-31T09:26:34;32.08;53.88
75164;HTU21D;63746;45.402;37.922;2023-07-31T09:29:01;32.13;54.22
75164;HTU21D;63746;45.402;37.922;2023-07-31T09:31:47;32.17;53.44
75164;HTU21D;63746;45.402;37.922;2023-07-31T09:34:13;32.22;54.08
75164;HTU21D;63746;45.402;37.922;2023-07-31T09:36:46;32.22;53.97
75164;HTU21D;63746;45.402;37.922;2023-07-31T09:39:14;32.24;53.96
75164;HTU21D;63746;45.402;37.922;2023-07-31T09:41:44;32.26;53.92
75164;HTU21D;63746;45.402;37.922;2023-07-31T09:44:11;32.29;53.94
75164;HTU21D;63746;45.402;37.922;2023-07-31T09:46:37;32.37;53.92
75164;HTU21D;63746;45.402;37.922;2023-07-31T09:49:10;32.44;53.56
75164;HTU21D;63746;45.402;37.922;2023-07-31T09:51:41;32.53;53.79
75164;HTU21D;63746;45.402;37.922;2023-07-31T09:54:15;32.57;53.36
75164;HTU21D;63746;45.402;37.922;2023-07-31T09:56:46;32.64;53.44
75164;HTU21D;63746;45.402;37.922;2023-07-31T09:59:18;32.70;53.42
75164;HTU21D;63746;45.402;37.922;2023-07-31T10:01:46;32.78;53.43
75164;HTU21D;63746;45.402;37.922;2023-07-31T10:04:13;32.82;53.38
75164;HTU21D;63746;45.402;37.922;2023-07-31T10:06:40;32.87;53.30
75164;HTU21D;63746;45.402;37.922;2023-07-31T10:09:09;32.89;53.22
75164;HTU21D;63746;45.402;37.922;2023-07-31T10:11:59;32.94;53.11
75164;HTU21D;63746;45.402;37.922;2023-07-31T10:14:26;32.99;53.20
75164;HTU21D;63746;45.402;37.922;2023-07-31T10:16:52;33.04;53.19
75164;HTU21D;63746;45.402;37.922;2023-07-31T10:19:19;33.12;53.10
75164;HTU21D;63746;45.402;37.922;2023-07-31T10:21:46;33.18;53.01
75164;HTU21D;63746;45.402;37.922;2023-07-31T10:24:14;33.25;52.95
75164;HTU21D;63746;45.402;37.922;2023-07-31T10:26:45;33.30;52.69
75164;HTU21D;63746;45.402;37.922;2023-07-31T10:29:13;33.34;52.75
75164;HTU21D;63746;45.402;37.922;2023-07-31T10:31:40;33.35;52.69
75164;HTU21D;63746;45.402;37.922;2023-07-31T10:34:06;33.35;52.68
75164;HTU21D;63746;45.402;37.922;2023-07-31T10:36:33;33.37;52.65
75164;HTU21D;63746;45.402;37.922;2023-07-31T10:38:59;33.41;52.62
75164;HTU21D;63746;45.402;37.922;2023-07-31T10:41:29;33.45;52.31
75164;HTU21D;63746;45.402;37.922;2023-07-31T10:44:02;33.47;52.30
75164;HTU21D;63746;45.402;37.922;2023-07-31T10:46:28;33.45;52.39
75164;HTU21D;63746;45.402;37.922;2023-07-31T10:49:02;33.44;52.01
75164;HTU21D;63746;45.402;37.922;2023-07-31T10:51:35;33.45;52.01
75164;HTU21D;63746;45.402;37.922;2023-07-31T10:54:15;33.47;51.72
75164;HTU21D;63746;45.402;37.922;2023-07-31T10:56:46;33.46;52.07
75164;HTU21D;63746;45.402;37.922;2023-07-31T10:59:15;33.44;52.27
75164;HTU21D;63746;45.402;37.922;2023-07-31T11:01:53;33.43;51.85
75164;HTU21D;63746;45.402;37.922;2023-07-31T11:04:25;33.43;51.95
75164;HTU21D;63746;45.402;37.922;2023-07-31T11:06:58;33.42;51.75
75164;HTU21D;63746;45.402;37.922;2023-07-31T11:09:29;33.43;51.94
75164;HTU21D;63746;45.402;37.922;2023-07-31T11:11:56;33.46;52.16
75164;HTU21D;63746;45.402;37.922;2023-07-31T11:14:22;33.49;52.15
75164;HTU21D;63746;45.402;37.922;2023-07-31T11:16:51;33.53;51.97
75164;HTU21D;63746;45.402;37.922;2023-07-31T11:19:24;33.58;51.70
75164;HTU21D;63746;45.402;37.922;2023-07-31T11:21:52;33.64;51.99
75164;HTU21D;63746;45.402;37.922;2023-07-31T11:24:19;33.68;51.95
75164;HTU21D;63746;45.402;37.922;2023-07-31T11:26:52;33.73;51.50
75164;HTU21D;63746;45.402;37.922;2023-07-31T11:29:19;33.72;51.79
75164;HTU21D;63746;45.402;37.922;2023-07-31T11:31:46;33.75;51.73
75164;HTU21D;63746;45.402;37.922;2023-07-31T11:34:13;33.78;51.72
75164;HTU21D;63746;45.402;37.922;2023-07-31T11:36:39;33.80;51.65
75164;HTU21D;63746;45.402;37.922;2023-07-31T11:39:07;33.78;51.56
75164;HTU21D;63746;45.402;37.922;2023-07-31T11:41:33;33.76;49.06
75164;HTU21D;63746;45.402;37.922;2023-07-31T11:44:00;33.68;51.47
75164;HTU21D;63746;45.402;37.922;2023-07-31T11:46:26;33.60;51.58
75164;HTU21D;63746;45.402;37.922;2023-07-31T11:48:59;33.57;51.29
75164;HTU21D;63746;45.402;37.922;2023-07-31T11:51:25;33.56;51.66
75164;HTU21D;63746;45.402;37.922;2023-07-31T11:53:57;33.52;51.38
75164;HTU21D;63746;45.402;37.922;2023-07-31T11:56:25;33.51;51.66
75164;HTU21D;63746;45.402;37.922;2023-07-31T11:58:59;33.51;51.21
75164;HTU21D;63746;45.402;37.922;2023-07-31T12:01:26;33.52;51.59
75164;HTU21D;63746;45.402;37.922;2023-07-31T12:03:56;33.52;51.61
75164;HTU21D;63746;45.402;37.922;2023-07-31T12:06:32;33.53;51.12
75164;HTU21D;63746;45.402;37.922;2023-07-31T12:09:03;33.56;51.31
75164;HTU21D;63746;45.402;37.922;2023-07-31T12:11:29;33.56;51.46
75164;HTU21D;63746;45.402;37.922;2023-07-31T12:13:55;33.53;51.44
75164;HTU21D;63746;45.402;37.922;2023-07-31T12:16:26;33.52;51.20
75164;HTU21D;63746;45.402;37.922;2023-07-31T12:18:52;33.55;51.40
75164;HTU21D;63746;45.402;37.922;2023-07-31T12:21:19;33.55;51.33
75164;HTU21D;63746;45.402;37.922;2023-07-31T12:23:45;33.55;51.32
75164;HTU21D;63746;45.402;37.922;2023-07-31T12:26:13;33.51;51.19
75164;HTU21D;63746;45.402;37.922;2023-07-31T12:28:46;33.45;51.03
75164;HTU21D;63746;45.402;37.922;2023-07-31T12:31:17;33.40;50.99
75164;HTU21D;63746;45.402;37.922;2023-07-31T12:33:44;33.35;51.24
75164;HTU21D;63746;45.402;37.922;2023-07-31T12:36:16;33.33;51.04
75164;HTU21D;63746;45.402;37.922;2023-07-31T12:38:42;33.32;51.29
75164;HTU21D;63746;45.402;37.922;2023-07-31T12:41:09;33.30;51.27
75164;HTU21D;63746;45.402;37.922;2023-07-31T12:43:36;33.29;51.27
75164;HTU21D;63746;45.402;37.922;2023-07-31T12:46:03;33.30;51.25
75164;HTU21D;63746;45.402;37.922;2023-07-31T12:48:29;33.30;51.20
75164;HTU21D;63746;45.402;37.922;2023-07-31T12:50:55;33.29;51.17
75164;HTU21D;63746;45.402;37.922;2023-07-31T12:53:21;33.26;51.14
75164;HTU21D;63746;45.402;37.922;2023-07-31T12:55:47;33.25;51.13
75164;HTU21D;63746;45.402;37.922;2023-07-31T12:58:14;33.21;51.14
75164;HTU21D;63746;45.402;37.922;2023-07-31T13:00:40;33.21;51.14
75164;HTU21D;63746;45.402;37.922;2023-07-31T13:03:06;33.19;51.09
75164;HTU21D;63746;45.402;37.922;2023-07-31T13:05:32;33.19;51.07
75164;HTU21D;63746;45.402;37.922;2023-07-31T13:07:58;33.18;51.04
75164;HTU21D;63746;45.402;37.922;2023-07-31T13:10:24;33.15;51.01
75164;HTU21D;63746;45.402;37.922;2023-07-31T13:12:51;33.13;51.02
75164;HTU21D;63746;45.402;37.922;2023-07-31T13:15:17;33.12;51.05
75164;HTU21D;63746;45.402;37.922;2023-07-31T13:17:43;33.11;51.05
75164;HTU21D;63746;45.402;37.922;2023-07-31T13:20:09;33.11;51.04
75164;HTU21D;63746;45.402;37.922;2023-07-31T13:22:35;33.08;51.04
75164;HTU21D;63746;45.402;37.922;2023-07-31T13:25:01;33.08;51.04
75164;HTU21D;63746;45.402;37.922;2023-07-31T13:27:28;33.04;51.04
75164;HTU21D;63746;45.402;37.922;2023-07-31T13:30:12;33.02;51.07
75164;HTU21D;63746;45.402;37.922;2023-07-31T13:32:38;32.98;51.11
75164;HTU21D;63746;45.402;37.922;2023-07-31T13:35:07;32.97;51.04
75164;HTU21D;63746;45.402;37.922;2023-07-31T13:37:34;32.92;51.12
75164;HTU21D;63746;45.402;37.922;2023-07-31T13:40:00;32.90;51.17
75164;HTU21D;63746;45.402;37.922;2023-07-31T13:42:26;32.86;51.17
75164;HTU21D;63746;45.402;37.922;2023-07-31T13:44:54;32.83;51.19
75164;HTU21D;63746;45.402;37.922;2023-07-31T13:47:21;32.79;51.22
75164;HTU21D;63746;45.402;37.922;2023-07-31T13:49:47;32.74;51.23
75164;HTU21D;63746;45.402;37.922;2023-07-31T13:52:14;32.72;51.26
75164;HTU21D;63746;45.402;37.922;2023-07-31T13:54:40;32.69;51.29
75164;HTU21D;63746;45.402;37.922;2023-07-31T13:57:08;32.64;51.30
75164;HTU21D;63746;45.402;37.922;2023-07-31T13:59:34;32.60;51.31
75164;HTU21D;63746;45.402;37.922;2023-07-31T14:02:02;32.55;51.31
75164;HTU21D;63746;45.402;37.922;2023-07-31T14:04:28;32.49;51.37
75164;HTU21D;63746;45.402;37.922;2023-07-31T14:06:55;32.44;51.38
75164;HTU21D;63746;45.402;37.922;2023-07-31T14:09:40;32.39;51.43
75164;HTU21D;63746;45.402;37.922;2023-07-31T14:12:07;32.34;51.46
75164;HTU21D;63746;45.402;37.922;2023-07-31T14:14:35;32.27;51.48
75164;HTU21D;63746;45.402;37.922;2023-07-31T14:17:01;32.24;51.53
75164;HTU21D;63746;45.402;37.922;2023-07-31T14:19:28;32.16;51.56
75164;HTU21D;63746;45.402;37.922;2023-07-31T14:21:54;32.14;51.59
75164;HTU21D;63746;45.402;37.922;2023-07-31T14:24:20;32.09;51.59
75164;HTU21D;63746;45.402;37.922;2023-07-31T14:26:46;32.04;51.62
75164;HTU21D;63746;45.402;37.922;2023-07-31T14:29:12;31.99;51.64
75164;HTU21D;63746;45.402;37.922;2023-07-31T14:31:38;31.94;51.66
75164;HTU21D;63746;45.402;37.922;2023-07-31T14:34:04;31.87;51.67
75164;HTU21D;63746;45.402;37.922;2023-07-31T14:36:30;31.81;51.73
75164;HTU21D;63746;45.402;37.922;2023-07-31T14:38:56;31.75;51.76
75164;HTU21D;63746;45.402;37.922;2023-07-31T14:41:22;31.69;51.79
75164;HTU21D;63746;45.402;37.922;2023-07-31T14:43:48;31.65;51.84
75164;HTU21D;63746;45.402;37.922;2023-07-31T14:46:14;31.61;51.87
75164;HTU21D;63746;45.402;37.922;2023-07-31T14:48:40;31.57;51.92
75164;HTU21D;63746;45.402;37.922;2023-07-31T14:51:06;31.55;51.93
75164;HTU21D;63746;45.402;37.922;2023-07-31T14:53:32;31.50;51.94
75164;HTU21D;63746;45.402;37.922;2023-07-31T14:55:58;31.46;51.98
75164;HTU21D;63746;45.402;37.922;2023-07-31T14:58:24;31.42;51.99
75164;HTU21D;63746;45.402;37.922;2023-07-31T15:00:50;31.38;51.99
75164;HTU21D;63746;45.402;37.922;2023-07-31T15:03:16;31.33;52.01
75164;HTU21D;63746;45.402;37.922;2023-07-31T15:05:42;31.27;52.04
75164;HTU21D;63746;45.402;37.922;2023-07-31T15:08:09;31.21;52.07